Time;durP1;ratioP1;P1;durP2;ratioP2;P2;SDS_P1;SDS_P2;PMS_P1;PMS_P2;Temp;Humidity;BMP_temperature;BMP_pressure;BME280_temperature;BME280_humidity;BME280_pressure;Samples;Min_cycle;Max_cycle;Signal;HPM_P1;HPM_P2
2021/12/05 00:22:22;;;;;;;;;;;20.10;59.30;;;24.00;34.78;93348.34;6036207;19;19923;-62
2021/12/05 00:24:26;;;;;;;;;;;20.10;59.30;;;24.00;35.19;93345.63;6034905;19;21472;-62
2021/12/05 00:26:28;;;;;;;;;;;20.10;59.40;;;23.99;34.82;93355.72;6034866;19;19921;-62
2021/12/05 00:36:15;;;;;;;;;;;20.00;60.40;;;23.94;35.37;93366.97;6057940;19;19925;-63
2021/12/05 00:40:40;;;;;;;;;;;20.00;59.90;;;23.93;34.95;93365.41;6054798;19;20328;-62
2021/12/05 00:45:16;;;;;;;;;;;19.90;59.90;;;23.90;35.28;93363.44;6063583;19;19939;-62
2021/12/05 00:56:29;;;;;;;;;;;19.80;60.20;;;23.85;35.24;93360.28;6065227;19;19923;-62
2021/12/05 01:01:15;;;;;;;;;;;19.80;60.40;;;23.84;35.26;93353.28;6038626;19;21324;-61
2021/12/05 01:06:27;;;;;;;;;;;19.80;60.50;;;23.81;35.35;93364.91;6056570;19;19922;-61
2021/12/05 01:08:20;;;;;;;;;;;19.80;60.50;;;23.80;35.18;93379.69;6055933;19;19994;-62
2021/12/05 01:12:43;;;;;;;;;;;19.70;60.60;;;23.79;35.56;93373.47;6051878;19;19915;-61
2021/12/05 01:15:20;;;;;;;;;;;19.80;60.60;;;23.78;35.69;93360.22;6062049;19;19950;-62
2021/12/05 01:17:19;;;;;;;;;;;19.70;60.60;;;23.78;35.25;93362.94;6054009;19;20446;-61
2021/12/05 01:19:22;;;;;;;;;;;19.70;60.60;;;23.78;35.72;93361.00;6038831;19;21025;-61
2021/12/05 01:21:25;;;;;;;;;;;19.70;60.70;;;23.78;35.47;93360.22;6050676;19;19926;-64
2021/12/05 01:23:43;;;;;;;;;;;19.70;60.70;;;23.78;35.46;93366.44;6032816;19;19906;-62
2021/12/05 01:25:51;;;;;;;;;;;19.70;60.90;;;23.78;35.51;93361.00;6059822;19;19922;-61
2021/12/05 01:28:04;;;;;;;;;;;19.70;60.90;;;23.77;35.56;93364.88;6052017;19;19978;-61
2021/12/05 01:31:17;;;;;;;;;;;19.70;60.70;;;23.78;35.35;93363.72;6042066;19;19923;-61
2021/12/05 01:34:52;;;;;;;;;;;19.70;60.90;;;23.78;35.83;93357.50;6070295;19;19915;-61
2021/12/05 01:37:10;;;;;;;;;;;19.70;60.90;;;23.77;35.51;93355.94;6060782;19;20565;-62
2021/12/05 01:53:15;;;;;;;;;;;19.60;61.00;;;23.73;35.46;93367.56;6057707;19;20572;-62
2021/12/05 02:30:41;;;;;;;;;;;19.60;61.50;;;23.74;36.02;93379.25;6036401;19;20370;-61
2021/12/05 02:32:53;;;;;;;;;;;19.60;61.50;;;23.74;35.82;93366.41;6021881;19;19918;-61
2021/12/05 02:37:49;;;;;;;;;;;19.60;61.50;;;23.75;35.70;93367.97;6068009;19;20285;-61
2021/12/05 02:41:41;;;;;;;;;;;19.60;61.50;;;23.75;35.80;93372.66;6048763;19;19925;-61
2021/12/05 02:43:46;;;;;;;;;;;19.60;61.60;;;23.75;35.83;93372.66;6035728;19;19918;-62
2021/12/05 02:45:48;;;;;;;;;;;19.60;61.60;;;23.76;35.90;93379.66;6041370;19;19911;-62
2021/12/05 02:47:51;;;;;;;;;;;19.60;61.60;;;23.76;35.58;93371.50;6058121;19;19911;-61
2021/12/05 02:49:54;;;;;;;;;;;19.60;61.50;;;23.77;35.70;93370.34;6048832;19;19919;-62
2021/12/05 02:52:00;;;;;;;;;;;19.60;61.60;;;23.77;36.01;93378.50;6061637;19;20579;-62
2021/12/05 02:56:04;;;;;;;;;;;19.60;61.60;;;23.75;35.85;93380.81;6046253;19;19922;-61
2021/12/05 03:00:39;;;;;;;;;;;19.60;61.60;;;23.77;35.88;93383.16;6064831;19;20180;-61
2021/12/05 03:02:45;;;;;;;;;;;19.60;61.60;;;23.77;35.88;93385.88;6059944;19;19923;-61
2021/12/05 03:04:48;;;;;;;;;;;19.60;61.60;;;23.77;35.63;93385.88;6045446;19;20012;-61
2021/12/05 03:06:52;;;;;;;;;;;19.60;61.60;;;23.77;35.48;93381.22;6052394;19;19929;-61
2021/12/05 03:09:01;;;;;;;;;;;19.60;61.60;;;23.77;35.52;93386.66;6070651;19;19965;-61
2021/12/05 03:11:03;;;;;;;;;;;19.70;61.80;;;23.78;35.66;93388.22;6052935;19;20749;-62
2021/12/05 03:13:04;;;;;;;;;;;19.60;61.80;;;23.78;35.59;93384.72;6067260;19;20015;-61
2021/12/05 03:15:10;;;;;;;;;;;19.60;61.70;;;23.79;35.87;93383.56;6043350;19;19919;-62
2021/12/05 03:17:11;;;;;;;;;;;19.60;61.90;;;23.79;35.92;93389.78;6055905;19;22636;-61
2021/12/05 03:19:12;;;;;;;;;;;19.70;62.00;;;23.78;35.79;93385.50;6062092;19;19956;-61
2021/12/05 03:21:14;;;;;;;;;;;19.60;61.90;;;23.78;35.86;93385.50;6058257;19;19921;-61
2021/12/05 03:23:15;;;;;;;;;;;19.60;61.80;;;23.79;35.59;93392.50;6057887;19;20616;-61
2021/12/05 03:25:16;;;;;;;;;;;19.60;61.90;;;23.79;35.88;93397.94;6050287;19;19925;-61
2021/12/05 03:27:17;;;;;;;;;;;19.60;62.10;;;23.79;36.10;93395.22;6070765;19;20006;-61
2021/12/05 03:29:20;;;;;;;;;;;19.60;62.00;;;23.80;35.70;93396.00;6060139;19;20254;-61
2021/12/05 03:31:21;;;;;;;;;;;19.60;62.10;;;23.79;35.91;93406.09;6054762;19;20469;-61
2021/12/05 03:33:25;;;;;;;;;;;19.60;62.10;;;23.80;35.96;93406.88;6061107;19;20406;-62
2021/12/05 03:35:28;;;;;;;;;;;19.60;62.10;;;23.80;35.62;93407.66;6049229;19;20367;-61
2021/12/05 03:37:29;;;;;;;;;;;19.70;62.20;;;23.79;35.98;93403.38;6073013;19;19969;-61
2021/12/05 03:39:34;;;;;;;;;;;19.60;62.10;;;23.80;35.67;93404.94;6064844;19;20288;-61
2021/12/05 03:41:36;;;;;;;;;;;19.70;62.20;;;23.79;36.01;93400.66;6067379;19;19923;-61
2021/12/05 03:43:38;;;;;;;;;;;19.60;62.10;;;23.79;35.71;93406.09;6057260;19;20802;-62
2021/12/05 03:45:43;;;;;;;;;;;19.60;62.10;;;23.80;35.88;93402.22;6051199;19;20343;-61
2021/12/05 03:47:45;;;;;;;;;;;19.60;62.10;;;23.80;36.02;93404.16;6053467;19;19946;-61
2021/12/05 03:49:46;;;;;;;;;;;19.60;62.10;;;23.80;35.63;93401.44;6060798;19;19927;-61
2021/12/05 03:51:51;;;;;;;;;;;19.60;62.10;;;23.79;36.15;93397.94;6064596;19;20277;-70
2021/12/05 03:53:53;;;;;;;;;;;19.60;62.00;;;23.80;36.12;93399.50;6044637;19;19925;-68
2021/12/05 03:55:55;;;;;;;;;;;19.60;62.00;;;23.80;35.89;93390.56;6061402;19;20015;-61
2021/12/05 03:57:56;;;;;;;;;;;19.70;62.20;;;23.79;35.74;93383.56;6045108;19;20025;-61
2021/12/05 04:00:00;;;;;;;;;;;19.70;62.10;;;23.80;36.10;93385.13;6069173;19;19990;-58
2021/12/05 04:02:02;;;;;;;;;;;19.60;62.00;;;23.79;36.06;93378.91;6059938;19;19919;-61
2021/12/05 04:04:04;;;;;;;;;;;19.60;62.00;;;23.80;35.65;93375.03;6049381;19;19918;-61
2021/12/05 04:06:08;;;;;;;;;;;19.60;62.10;;;23.79;35.95;93389.78;6058859;19;19922;-68
2021/12/05 04:08:11;;;;;;;;;;;19.60;62.00;;;23.79;36.09;93381.63;6058907;19;20626;-64
2021/12/05 04:10:13;;;;;;;;;;;19.60;62.10;;;23.80;36.10;93387.84;6053716;19;20371;-64
2021/12/05 04:12:15;;;;;;;;;;;19.70;62.20;;;23.79;35.67;93389.78;6059994;19;19922;-64
2021/12/05 04:14:17;;;;;;;;;;;19.60;62.10;;;23.78;35.65;93393.66;6048884;19;19919;-64
2021/12/05 04:16:21;;;;;;;;;;;19.60;62.10;;;23.77;35.90;93389.38;6047068;19;20038;-64
2021/12/05 04:18:22;;;;;;;;;;;19.60;62.10;;;23.77;35.99;93397.53;6048292;19;19958;-66
2021/12/05 04:20:24;;;;;;;;;;;19.60;62.10;;;23.77;35.74;93380.44;6066364;19;19986;-64
2021/12/05 04:22:24;;;;;;;;;;;19.60;62.10;;;23.75;35.91;93384.31;6065191;19;19923;-64
2021/12/05 04:24:25;;;;;;;;;;;19.60;62.10;;;23.75;35.79;93378.09;6056261;19;19926;-64
2021/12/05 04:26:26;;;;;;;;;;;19.60;62.10;;;23.74;35.91;93377.31;6064757;19;19974;-64
2021/12/05 04:28:27;;;;;;;;;;;19.60;62.10;;;23.73;35.69;93375.75;6048003;19;19914;-64
2021/12/05 04:30:29;;;;;;;;;;;19.60;62.10;;;23.73;35.82;93377.69;6048943;19;19911;-64
2021/12/05 04:32:31;;;;;;;;;;;19.60;62.20;;;23.72;35.87;93378.84;6041377;19;19943;-64
2021/12/05 04:34:31;;;;;;;;;;;19.60;62.10;;;23.70;36.16;93373.00;6060827;19;19919;-64
2021/12/05 04:36:33;;;;;;;;;;;19.60;62.10;;;23.69;35.96;93366.75;6058758;19;20021;-63
2021/12/05 04:38:34;;;;;;;;;;;19.50;62.00;;;23.69;36.20;93371.44;6061393;19;19926;-64
2021/12/05 04:40:35;;;;;;;;;;;19.60;62.20;;;23.67;35.80;93371.81;6063640;19;19917;-64
2021/12/05 04:42:37;;;;;;;;;;;19.50;62.20;;;23.67;35.63;93379.19;6037307;19;19929;-64
2021/12/05 04:44:38;;;;;;;;;;;19.50;62.10;;;23.66;36.10;93372.19;6051740;19;19947;-63
2021/12/05 04:46:39;;;;;;;;;;;19.60;62.20;;;23.66;36.09;93370.25;6054786;19;19922;-64
2021/12/05 04:48:44;;;;;;;;;;;19.50;62.10;;;23.66;35.72;93369.47;6052011;19;20280;-63
2021/12/05 04:50:45;;;;;;;;;;;19.50;62.20;;;23.66;35.80;93364.81;6046358;19;19931;-64
2021/12/05 04:52:45;;;;;;;;;;;19.50;62.10;;;23.67;36.18;93371.81;6045352;19;19948;-64
2021/12/05 04:54:48;;;;;;;;;;;19.60;62.20;;;23.67;35.87;93360.13;6047094;19;20285;-64
2021/12/05 04:56:49;;;;;;;;;;;19.50;62.10;;;23.68;35.80;93357.03;6005964;19;20549;-64
2021/12/05 04:58:54;;;;;;;;;;;19.60;62.20;;;23.69;35.74;93364.03;6039777;19;19919;-64
2021/12/05 05:00:59;;;;;;;;;;;19.50;62.30;;;23.70;36.03;93360.16;6041231;19;20728;-64
2021/12/05 05:03:00;;;;;;;;;;;19.60;62.20;;;23.71;36.09;93355.50;6047684;19;20729;-64
2021/12/05 05:05:01;;;;;;;;;;;19.60;62.20;;;23.71;36.13;93358.22;6068887;19;19978;-64
2021/12/05 05:07:05;;;;;;;;;;;19.60;62.30;;;23.72;36.02;93354.34;6048789;19;19970;-64
2021/12/05 05:09:05;;;;;;;;;;;19.60;62.30;;;23.73;36.11;93358.63;6042833;19;19927;-64
2021/12/05 05:11:09;;;;;;;;;;;19.60;63.00;;;23.74;35.85;93354.75;6043255;19;19922;-63
2021/12/05 05:13:10;;;;;;;;;;;19.60;62.30;;;23.74;36.15;93358.25;6041930;19;19936;-64
2021/12/05 05:15:12;;;;;;;;;;;19.60;62.30;;;23.74;36.08;93347.38;6046651;19;20273;-64
2021/12/05 05:17:13;;;;;;;;;;;19.60;62.30;;;23.75;36.13;93357.09;6061156;19;20225;-64
2021/12/05 05:19:15;;;;;;;;;;;19.60;62.20;;;23.75;35.91;93357.09;6049182;19;19954;-64
2021/12/05 05:21:44;;;;;;;;;;;19.60;62.20;;;23.76;35.74;93363.31;6058686;19;19963;-64
2021/12/05 05:30:50;;;;;;;;;;;19.60;62.20;;;23.74;36.05;93366.41;6044249;19;20519;-64
2021/12/05 05:40:07;;;;;;;;;;;19.60;62.30;;;23.73;36.23;93374.97;6053751;19;20307;-63
2021/12/05 05:49:11;;;;;;;;;;;19.60;62.20;;;23.76;35.74;93366.03;6024525;19;19918;-63
2021/12/05 05:51:12;;;;;;;;;;;19.60;62.30;;;23.76;35.79;93360.59;6038773;19;19939;-64
2021/12/05 05:53:13;;;;;;;;;;;19.60;62.30;;;23.78;35.88;93368.38;6053251;19;20340;-64
2021/12/05 05:55:14;;;;;;;;;;;19.60;62.30;;;23.78;36.05;93371.88;6044354;19;20950;-64
2021/12/05 05:57:24;;;;;;;;;;;19.60;62.30;;;23.78;35.71;93376.56;6041468;19;20307;-64
2021/12/05 05:59:27;;;;;;;;;;;19.60;62.30;;;23.78;36.00;93377.34;6059582;19;19971;-64
2021/12/05 06:03:37;;;;;;;;;;;19.60;62.20;;;23.78;35.77;93377.34;6054006;19;19927;-64
2021/12/05 06:05:38;;;;;;;;;;;19.60;62.20;;;23.79;36.02;93383.56;6054959;19;19925;-64
2021/12/05 06:07:43;;;;;;;;;;;19.60;62.20;;;23.78;35.60;93380.06;6046223;19;20522;-63
2021/12/05 06:09:44;;;;;;;;;;;19.60;62.20;;;23.78;35.64;93380.06;6019355;19;19923;-64
2021/12/05 06:11:44;;;;;;;;;;;19.60;62.00;;;23.79;35.35;93389.00;6030776;19;20003;-64
2021/12/05 06:13:46;;;;;;;;;;;19.60;61.70;;;23.79;35.54;93383.56;6040492;19;19915;-64
2021/12/05 06:15:47;;;;;;;;;;;19.60;62.10;;;23.79;35.56;93375.41;6034216;19;19915;-64
2021/12/05 06:17:48;;;;;;;;;;;19.60;61.10;;;23.79;35.23;93373.47;6018487;19;20524;-64
2021/12/05 06:19:49;;;;;;;;;;;19.60;61.10;;;23.79;35.67;93370.72;6021867;19;20007;-64
2021/12/05 06:21:50;;;;;;;;;;;19.60;61.20;;;23.78;35.46;93368.38;6038286;19;19919;-64
2021/12/05 06:23:50;;;;;;;;;;;19.60;61.40;;;23.78;35.90;93371.13;6038290;19;19922;-64
2021/12/05 06:25:52;;;;;;;;;;;19.60;61.50;;;23.77;35.51;93375.00;6039169;19;19926;-64
2021/12/05 06:27:55;;;;;;;;;;;19.60;61.60;;;23.77;35.39;93377.72;6042753;19;19914;-63
2021/12/05 06:30:07;;;;;;;;;;;19.60;61.60;;;23.76;35.90;93376.94;6031848;19;20494;-64
2021/12/05 06:37:11;;;;;;;;;;;19.60;61.70;;;23.73;35.92;93385.84;6047423;19;19914;-63
2021/12/05 06:39:39;;;;;;;;;;;19.60;61.70;;;23.73;35.78;93392.06;6028068;19;19945;-64
2021/12/05 06:46:04;;;;;;;;;;;19.60;61.80;;;23.73;35.94;93396.72;6043700;19;19919;-64
2021/12/05 06:48:05;;;;;;;;;;;19.60;61.80;;;23.73;35.61;93396.72;6037788;19;20014;-63
2021/12/05 06:50:06;;;;;;;;;;;19.60;61.90;;;23.73;35.53;93405.66;6020450;19;20781;-63
2021/12/05 06:52:07;;;;;;;;;;;19.60;61.80;;;23.72;35.81;93406.81;6019182;19;19934;-63
2021/12/05 06:54:08;;;;;;;;;;;19.60;61.80;;;23.73;35.49;93410.34;6038700;19;19934;-64
2021/12/05 06:56:09;;;;;;;;;;;19.60;61.80;;;23.73;35.82;93415.78;6035818;19;19919;-64
2021/12/05 06:58:10;;;;;;;;;;;19.60;61.80;;;23.74;36.01;93409.16;6033005;19;19926;-64
2021/12/05 07:00:18;;;;;;;;;;;19.60;61.80;;;23.74;35.95;93411.91;6037837;19;19978;-64
2021/12/05 07:02:20;;;;;;;;;;;19.60;61.80;;;23.74;35.72;93412.69;6008483;19;19922;-64
2021/12/05 07:06:27;;;;;;;;;;;19.60;61.90;;;23.75;35.46;93413.47;6022884;19;19942;-64
2021/12/05 07:08:32;;;;;;;;;;;19.60;61.70;;;23.75;35.50;93405.28;6023705;19;20441;-64
2021/12/05 07:10:43;;;;;;;;;;;19.50;61.80;;;23.74;35.73;93404.50;6029911;19;20741;-63
2021/12/05 07:25:29;;;;;;;;;;;19.60;61.90;;;23.72;35.62;93385.06;6020739;19;19915;-63
2021/12/05 07:41:48;;;;;;;;;;;19.60;62.00;;;23.68;36.06;93384.25;6031429;19;19915;-63
2021/12/05 07:43:34;;;;;;;;;;;19.50;61.90;;;23.70;36.06;93386.59;6021146;19;19925;-63
2021/12/05 07:45:42;;;;;;;;;;;19.50;61.90;;;23.69;35.71;93383.09;6024615;19;20457;-63
2021/12/05 07:47:46;;;;;;;;;;;19.60;62.00;;;23.69;35.60;93385.81;6038095;19;19942;-63
2021/12/05 07:49:48;;;;;;;;;;;19.50;61.90;;;23.69;35.92;93382.31;6028415;19;19935;-64
2021/12/05 07:51:50;;;;;;;;;;;19.50;61.90;;;23.69;35.66;93383.09;6009980;19;20340;-64
2021/12/05 07:54:18;;;;;;;;;;;19.50;61.80;;;23.70;35.96;93379.22;6033912;19;21097;-63
2021/12/05 07:56:32;;;;;;;;;;;19.50;61.90;;;23.70;35.62;93375.72;6026930;19;20431;-64
2021/12/05 08:01:05;;;;;;;;;;;19.60;62.00;;;23.71;35.54;93380.78;6001921;19;19919;-64
2021/12/05 08:14:42;;;;;;;;;;;19.50;61.80;;;23.68;35.98;93375.31;6013088;19;20280;-63
2021/12/05 08:16:47;;;;;;;;;;;19.50;61.80;;;23.69;36.03;93376.88;6003270;19;20650;-64
2021/12/05 08:18:48;;;;;;;;;;;19.50;61.90;;;23.70;36.01;93381.16;6012571;19;20272;-64
2021/12/05 08:20:49;;;;;;;;;;;19.50;61.80;;;23.71;35.63;93374.56;6034441;19;19919;-64
2021/12/05 08:22:50;;;;;;;;;;;19.50;61.80;;;23.70;35.94;93378.44;6035548;19;20002;-64
2021/12/05 08:24:51;;;;;;;;;;;19.50;61.80;;;23.71;35.78;93382.72;6042136;19;20303;-64
2021/12/05 08:26:53;;;;;;;;;;;19.50;61.80;;;23.70;35.81;93375.72;6033295;19;19926;-63
2021/12/05 08:31:17;;;;;;;;;;;19.50;61.80;;;23.71;35.61;93377.28;6011215;19;19910;-63
2021/12/05 09:21:07;;;;;;;;;;;19.60;60.10;;;23.77;34.84;93380.44;6019114;19;21103;-64
2021/12/05 09:27:48;;;;;;;;;;;19.60;59.80;;;23.77;34.86;93375.00;6027412;19;19935;-63
2021/12/05 09:39:20;;;;;;;;;;;19.70;58.90;;;23.79;34.32;93368.00;6001993;19;19994;-64
2021/12/05 10:15:36;;;;;;;;;;;19.80;59.20;;;24.03;34.56;93348.41;6022607;19;20651;-64
2021/12/05 10:19:10;;;;;;;;;;;19.80;59.20;;;24.05;34.71;93353.47;6024316;19;22700;-64
2021/12/05 10:37:21;;;;;;;;;;;19.90;59.30;;;24.09;34.37;93350.78;6054104;19;19919;-64
2021/12/05 10:39:23;;;;;;;;;;;19.90;59.20;;;24.09;34.30;93343.38;6031987;19;19923;-64
2021/12/05 10:43:32;;;;;;;;;;;19.90;59.20;;;24.10;34.72;93338.72;6023344;19;20208;-64
2021/12/05 10:45:39;;;;;;;;;;;19.90;59.30;;;24.11;34.67;93340.28;6009232;19;21351;-64
2021/12/05 10:47:45;;;;;;;;;;;19.90;59.30;;;24.10;34.57;93344.16;6011074;19;20258;-64
2021/12/05 10:49:45;;;;;;;;;;;19.90;59.30;;;24.11;34.53;93345.72;6049613;19;19923;-64
2021/12/05 10:51:55;;;;;;;;;;;19.90;59.30;;;24.09;34.45;93348.81;6069468;19;20017;-63
2021/12/05 10:54:07;;;;;;;;;;;19.90;59.30;;;24.08;34.57;93347.25;6063779;19;20506;-64
2021/12/05 10:56:23;;;;;;;;;;;19.90;59.40;;;24.07;34.61;93345.69;6043110;19;20319;-64
2021/12/05 10:58:30;;;;;;;;;;;19.90;59.30;;;24.06;34.55;93349.59;6038776;19;19915;-64
2021/12/05 11:00:31;;;;;;;;;;;19.90;59.30;;;24.05;34.55;93348.81;6044790;19;19982;-64
2021/12/05 11:02:34;;;;;;;;;;;19.90;59.40;;;24.05;34.80;93343.34;6019784;19;20840;-65
2021/12/05 11:04:40;;;;;;;;;;;19.90;59.30;;;24.05;34.56;93343.34;6028055;19;19942;-64
2021/12/05 11:06:51;;;;;;;;;;;19.80;59.20;;;24.06;34.56;93344.13;6041239;19;19976;-64
2021/12/05 11:09:15;;;;;;;;;;;19.90;59.40;;;24.05;34.32;93343.34;6023438;19;19939;-64
2021/12/05 11:11:16;;;;;;;;;;;19.90;59.30;;;24.05;34.77;93340.63;6031351;19;19926;-64
2021/12/05 11:13:28;;;;;;;;;;;19.90;59.30;;;24.06;34.29;93333.25;6039842;19;19915;-62
2021/12/05 11:15:35;;;;;;;;;;;19.90;59.30;;;24.05;34.59;93337.13;6037847;19;19998;-62
2021/12/05 11:17:41;;;;;;;;;;;19.90;59.30;;;24.05;34.67;93342.56;6046996;19;20021;-62
2021/12/05 11:19:49;;;;;;;;;;;19.90;59.30;;;24.04;34.73;93347.25;6044775;19;19919;-72
2021/12/05 11:22:00;;;;;;;;;;;19.90;59.30;;;24.04;34.53;93343.75;6055398;19;19922;-66
2021/12/05 11:24:12;;;;;;;;;;;19.90;59.40;;;24.03;34.40;93350.34;6060174;19;19952;-71
2021/12/05 11:26:19;;;;;;;;;;;19.90;59.40;;;24.02;34.53;93344.13;6015735;19;19922;-67
2021/12/05 11:30:15;;;;;;;2.20;1.42;;;19.90;59.00;;;24.04;34.79;93343.75;6063722;19;20336;-75
2021/12/05 11:32:26;;;;;;;4.97;2.00;;;19.90;59.70;;;24.03;34.76;93345.69;5944685;19;2004419;-72
2021/12/05 11:34:29;;;;;;;8.13;2.78;;;20.00;59.90;;;24.03;34.98;93342.97;6055000;19;22144;-70
2021/12/05 11:36:38;;;;;;;3.53;2.60;;;20.00;59.80;;;24.05;34.98;93343.34;6061612;19;20021;-79
2021/12/05 11:38:39;;;;;;;8.60;2.33;;;20.00;59.80;;;24.09;34.72;93345.31;6064078;19;20824;-72
2021/12/05 11:41:08;;;;;;;3.72;2.65;;;20.00;59.90;;;24.13;35.19;93346.13;6062129;19;20031;-73
2021/12/05 11:43:13;;;;;;;5.07;3.30;;;20.10;60.00;;;24.15;35.17;93341.09;6061452;19;20047;-76
2021/12/05 11:45:14;;;;;;;9.20;3.70;;;20.10;59.90;;;24.19;35.12;93341.88;6089250;19;20428;-76
2021/12/05 11:47:19;;;;;;;8.02;4.25;;;20.20;59.90;;;24.23;34.70;93339.97;6093427;19;20121;-69
2021/12/05 11:49:25;;;;;;;8.13;4.00;;;20.20;59.80;;;24.26;35.13;93337.25;6096445;19;20019;-71
2021/12/05 11:51:30;;;;;;;8.43;4.20;;;20.30;59.80;;;24.30;34.87;93340.81;6095649;19;20010;-74
2021/12/05 11:53:44;;;;;;;5.28;4.15;;;20.30;59.60;;;24.32;34.82;93330.31;6093415;19;20021;-74
2021/12/05 11:55:45;;;;;;;13.52;5.28;;;20.30;59.50;;;24.33;34.72;93342.78;6097465;19;20010;-76
2021/12/05 11:57:45;;;;;;;7.25;5.03;;;20.40;59.10;;;24.37;34.89;93331.91;6069673;19;20035;-70
2021/12/05 12:00:04;;;;;;;7.18;5.60;;;20.40;59.10;;;24.41;34.54;93334.66;6082761;19;20010;-73
2021/12/05 12:02:20;;;;;;;9.73;4.60;;;20.40;58.90;;;24.42;34.46;93334.31;6084421;19;20024;-69
2021/12/05 12:04:36;;;;;;;8.68;5.82;;;20.40;58.80;;;24.46;34.11;93328.88;6076068;19;21029;-76
2021/12/05 12:06:38;;;;;;;9.88;6.10;;;20.50;58.60;;;24.49;34.48;93331.63;6090669;19;20612;-75
2021/12/05 12:08:39;;;;;;;13.55;6.13;;;20.50;58.40;;;24.51;34.46;93332.00;6068445;19;20046;-75
2021/12/05 12:10:45;;;;;;;11.90;6.63;;;20.50;58.20;;;24.54;34.08;93333.97;6068274;19;20621;-67
2021/12/05 12:12:51;;;;;;;9.25;5.70;;;20.60;58.20;;;24.56;33.84;93331.66;6057126;19;20006;-72
2021/12/05 12:14:53;;;;;;;12.98;7.13;;;20.60;58.10;;;24.61;34.25;93328.56;6060714;19;20019;-76
2021/12/05 12:16:54;;;;;;;12.48;6.28;;;20.60;57.90;;;24.62;33.80;93327.41;6062313;19;20474;-76
2021/12/05 12:18:57;;;;;;;12.75;6.53;;;20.70;57.90;;;24.65;34.16;93321.19;6063019;19;20018;-76
2021/12/05 12:21:08;;;;;;;10.40;6.35;;;20.70;57.80;;;24.68;33.48;93319.63;6076222;19;20014;-78
2021/12/05 12:23:09;;;;;;;11.75;7.28;;;20.70;57.60;;;24.72;33.51;93323.16;6071097;19;20014;-77
2021/12/05 12:25:15;;;;;;;11.80;7.43;;;20.80;57.60;;;24.75;33.87;93327.06;6075223;19;20450;-68
2021/12/05 12:27:17;;;;;;;13.02;7.20;;;20.80;57.50;;;24.76;33.57;93320.44;6073663;19;20019;-66
2021/12/05 12:29:19;;;;;;;14.02;7.53;;;20.80;57.40;;;24.77;33.44;93324.72;6073768;19;20074;-72
2021/12/05 12:31:34;;;;;;;12.13;6.75;;;20.90;57.30;;;24.79;33.45;93325.13;6078293;19;20006;-73
2021/12/05 12:33:43;;;;;;;12.77;7.45;;;20.90;57.20;;;24.81;33.69;93322.78;6092987;19;20450;-78
2021/12/05 12:35:46;;;;;;;16.23;8.35;;;20.90;57.10;;;24.84;33.66;93327.50;6098657;19;20018;-70
2021/12/05 12:37:58;;;;;;;12.98;7.13;;;21.00;57.10;;;24.85;33.88;93329.84;6091792;19;20633;-73
2021/12/05 12:39:59;;;;;;;15.05;7.28;;;21.00;57.10;;;24.87;33.37;93318.56;6089452;19;20018;-73
2021/12/05 12:42:16;;;;;;;11.63;7.13;;;21.00;56.90;;;24.87;33.74;93319.34;6075936;19;20014;-76
2021/12/05 12:44:17;;;;;;;12.10;6.95;;;21.10;57.00;;;24.90;33.43;93323.25;6061770;19;20019;-77
2021/12/05 12:46:40;;;;;;;13.68;7.82;;;21.10;56.80;;;24.92;33.26;93329.88;6053984;19;20011;-73
2021/12/05 12:48:41;;;;;;;9.77;7.45;;;21.10;56.70;;;24.94;33.50;93321.31;6055216;19;20020;-78
2021/12/05 12:50:52;;;;;;;12.13;8.00;;;21.20;56.70;;;24.95;33.39;93322.88;6060888;19;20014;-77
2021/12/05 12:53:13;;;;;;;12.75;7.60;;;21.20;56.60;;;24.97;33.69;93326.00;6072783;19;20064;-75
2021/12/05 12:55:13;;;;;;;13.18;7.45;;;21.20;56.60;;;24.99;33.42;93329.16;6068281;19;20090;-77
2021/12/05 12:57:26;;;;;;;12.15;7.43;;;21.20;56.50;;;25.00;33.11;93319.81;6049999;19;20022;-74
2021/12/05 12:59:32;;;;;;;8.93;6.80;;;21.20;56.40;;;25.04;33.22;93323.31;6062881;19;20365;-78
2021/12/05 13:11:23;;;;;;;10.00;6.50;;;21.30;56.30;;;25.08;33.38;93336.97;6074434;19;20680;-70
2021/12/05 13:13:28;;;;;;;12.70;7.00;;;21.30;56.30;;;25.08;33.29;93326.84;6045755;19;20101;-65
2021/12/05 13:15:41;;;;;;;10.55;7.07;;;21.30;56.20;;;25.09;32.92;93331.13;6059501;19;20014;-71
2021/12/05 13:17:49;;;;;;;9.40;6.63;;;21.30;56.20;;;25.09;32.83;93328.41;6072830;19;20022;-64
2021/12/05 13:19:59;;;;;;;10.45;6.32;;;21.30;56.10;;;25.08;33.14;93321.38;6072319;19;20494;-71
2021/12/05 13:22:07;;;;;;;9.40;5.90;;;21.30;56.00;;;25.11;32.94;93330.72;6064973;19;20381;-69
2021/12/05 13:24:25;;;;;;;8.57;5.32;;;21.30;55.90;;;25.12;32.52;93330.34;6065153;19;20524;-69
2021/12/05 13:26:35;;;;;;;7.38;4.95;;;21.30;55.60;;;25.14;32.50;93324.50;6067564;19;20015;-74
2021/12/05 13:28:45;;;;;;;7.03;4.55;;;21.30;56.00;;;25.14;32.89;93324.50;6066807;19;20013;-68
2021/12/05 13:30:47;;;;;;;7.93;4.82;;;21.40;55.30;;;25.16;32.41;93327.63;6058938;19;20061;-75
2021/12/05 13:32:51;;;;;;;6.53;4.57;;;21.40;55.30;;;25.19;32.36;93329.59;6059012;19;20549;-72
2021/12/05 13:35:01;;;;;;;6.72;4.30;;;21.40;55.30;;;25.19;32.92;93326.84;6059787;19;20020;-76
2021/12/05 13:37:11;;;;;;;5.90;4.22;;;21.40;55.40;;;25.21;32.52;93335.44;6054825;19;20018;-73
2021/12/05 13:39:55;;;;;;;6.38;4.28;;;21.40;55.40;;;25.21;33.00;93336.22;6052530;19;20523;-72
2021/12/05 13:42:04;;;;;;;7.00;3.90;;;21.40;55.40;;;25.21;32.72;93335.44;6068054;19;20006;-74
2021/12/05 13:44:05;;;;;;;5.53;4.22;;;21.40;55.50;;;25.21;32.51;93338.94;6057583;19;21691;-71
2021/12/05 13:46:31;;;;;;;9.55;4.28;;;21.50;55.60;;;25.23;32.75;93341.31;6049458;19;20007;-67
2021/12/05 13:48:33;;;;;;;4.68;3.38;;;21.40;55.60;;;25.23;32.64;93349.50;6064383;19;20811;-72
2021/12/05 13:50:42;;;;;;;5.53;3.65;;;21.50;55.90;;;25.23;32.78;93350.28;6064957;19;20425;-69
2021/12/05 13:52:56;;;;;;;9.93;4.35;;;21.50;55.80;;;25.25;32.94;93355.34;6057483;19;20031;-73
2021/12/05 13:55:41;;;;;;;4.65;3.35;;;21.50;55.60;;;25.26;32.65;93359.63;6072354;19;20014;-66
2021/12/05 13:58:19;;;;;;;9.35;3.83;;;21.50;55.80;;;25.25;33.01;93356.13;6066134;19;20074;-76
2021/12/05 14:00:40;;;;;;;4.70;3.85;;;21.50;55.70;;;25.25;32.91;93358.06;6071047;19;20006;-73
2021/12/05 14:02:52;;;;;;;6.65;4.35;;;21.50;55.90;;;25.28;32.68;93362.75;6063140;19;20020;-75
2021/12/05 14:04:53;;;;;;;4.40;3.95;;;21.60;56.00;;;25.29;32.68;93364.31;6056327;19;20032;-72
2021/12/05 14:07:05;;;;;;;6.18;3.53;;;21.60;55.80;;;25.29;33.12;93354.19;6042026;19;20033;-68
2021/12/05 14:09:32;;;;;;;5.53;3.58;;;21.60;55.80;;;25.30;32.90;93360.41;6037260;19;20006;-74
2021/12/05 14:11:36;;;;;;;7.07;4.05;;;21.60;55.70;;;25.26;32.71;93365.09;6049613;19;20070;-72
2021/12/05 14:13:36;;;;;;;9.13;3.40;;;21.50;55.60;;;25.27;32.85;93361.97;6058027;19;20021;-71
2021/12/05 14:15:41;;;;;;;5.25;3.35;;;21.50;55.70;;;25.27;32.71;93366.66;6057988;19;20014;-68
2021/12/05 14:17:45;;;;;;;7.78;3.63;;;21.50;55.70;;;25.26;33.12;93363.13;6056841;19;20809;-72
2021/12/05 14:19:59;;;;;;;5.85;3.83;;;21.50;55.60;;;25.27;32.58;93364.69;6048620;19;20006;-71
2021/12/05 14:22:04;;;;;;;9.07;3.40;;;21.50;55.60;;;25.27;32.68;93361.97;6050979;19;20460;-68
2021/12/05 14:24:05;;;;;;;6.20;3.58;;;21.50;55.30;;;25.26;32.64;93371.31;6042928;19;20035;-76
2021/12/05 14:26:20;;;;;;;7.85;3.47;;;21.50;55.30;;;25.25;32.60;93367.03;6081682;19;20583;-66
2021/12/05 14:28:20;;;;;;;7.13;4.28;;;21.60;55.30;;;25.27;32.84;93366.66;6067823;19;20747;-75
2021/12/05 14:30:25;;;;;;;4.95;3.88;;;21.60;55.30;;;25.26;32.89;93371.31;6054804;19;20133;-68
2021/12/05 14:32:32;;;;;;;8.07;4.60;;;21.60;55.10;;;25.26;32.83;93367.81;6051515;19;20034;-70
2021/12/05 14:34:35;;;;;;;5.68;3.75;;;21.60;54.90;;;25.26;32.86;93371.31;6063701;19;20045;-74
2021/12/05 14:36:45;;;;;;;5.55;4.07;;;21.60;55.00;;;25.28;32.52;93373.66;6067311;19;20018;-77
2021/12/05 14:38:46;;;;;;;5.22;3.75;;;21.60;55.10;;;25.29;32.94;93376.00;6063425;19;20014;-67